Time,TemperatureF,DewpointF,PressureIn,WindDirection,WindDirectionDegrees,WindSpeedMPH,WindSpeedGustMPH,Humidity,HourlyPrecipIn,Conditions,Clouds,dailyrainin,SoftwareType,DateUTC
2013-02-15 00:02:00,34.0,32.0,29.99,SSE,157,0.0,157.0,94,0.00,,,0.03,,2013-02-15 05:02:00,
2013-02-15 00:12:00,34.0,32.0,29.99,SSE,157,0.0,157.0,94,0.00,,,0.03,,2013-02-15 05:12:00,
2013-02-15 00:22:00,33.0,31.0,29.99,SSE,155,0.0,0.0,94,0.00,,,0.02,,2013-02-15 05:22:00,
2013-02-15 00:32:00,33.0,31.0,29.99,SSE,155,0.0,0.0,94,0.00,,,0.02,,2013-02-15 05:32:00,
2013-02-15 00:42:00,33.0,31.0,29.99,SSE,155,0.0,0.0,94,0.00,,,0.02,,2013-02-15 05:42:00,
2013-02-15 00:52:00,33.0,32.0,30.00,SSE,155,0.0,0.0,98,0.00,,,0.02,,2013-02-15 05:52:00,
2013-02-15 01:02:00,32.0,31.0,30.00,SSE,155,0.0,0.0,97,0.00,,,0.02,,2013-02-15 06:02:00,
2013-02-15 01:11:00,31.0,30.0,30.00,SSE,155,0.0,0.0,97,0.00,,,0.01,,2013-02-15 06:11:00,
2013-02-15 01:22:00,31.0,30.0,30.00,SSE,155,0.0,0.0,97,0.00,,,0.01,,2013-02-15 06:22:00,
2013-02-15 01:32:00,31.0,30.0,29.99,SSE,155,0.0,0.0,97,0.00,,,0.01,,2013-02-15 06:32:00,
2013-02-15 01:42:00,31.0,30.0,29.99,SSE,155,0.0,0.0,97,0.00,,,0.01,,2013-02-15 06:42:00,
2013-02-15 01:52:00,31.0,31.0,29.99,SSE,155,0.0,0.0,98,0.00,,,0.01,,2013-02-15 06:52:00,
2013-02-15 02:01:00,31.0,31.0,29.99,SSE,155,0.0,0.0,98,0.00,,,0.01,,2013-02-15 07:01:00,
2013-02-15 02:11:00,31.0,31.0,29.99,SSE,155,0.0,0.0,98,0.00,,,0.01,,2013-02-15 07:11:00,
2013-02-15 02:21:00,31.0,31.0,29.99,SSE,155,0.0,0.0,100,0.00,,,0.01,,2013-02-15 07:21:00,
2013-02-15 02:31:00,31.0,31.0,29.99,SSE,155,0.0,0.0,100,0.00,,,0.01,,2013-02-15 07:31:00,
2013-02-15 02:42:00,31.0,31.0,29.99,SSE,155,0.0,0.0,100,0.00,,,0.01,,2013-02-15 07:42:00,
2013-02-15 02:52:00,32.0,32.0,29.99,SSE,155,0.0,0.0,100,0.00,,,0.01,,2013-02-15 07:52:00,
2013-02-15 03:01:00,33.0,33.0,29.98,SSE,155,0.0,0.0,100,0.00,,,0.01,,2013-02-15 08:01:00,
2013-02-15 03:11:00,33.0,33.0,29.98,SSE,155,0.0,0.0,100,0.00,,,0.01,,2013-02-15 08:11:00,
2013-02-15 03:21:00,33.0,33.0,29.98,SSE,155,0.0,0.0,100,0.00,,,0.01,,2013-02-15 08:21:00,
2013-02-15 03:32:00,33.0,33.0,29.98,SSE,155,0.0,0.0,100,0.00,,,0.01,,2013-02-15 08:32:00,
2013-02-15 03:42:00,33.0,33.0,29.98,SSE,155,0.0,0.0,100,0.00,,,0.01,,2013-02-15 08:42:00,
2013-02-15 03:53:00,33.0,33.0,29.98,SSE,155,0.0,3.0,100,0.00,,,0.01,,2013-02-15 08:53:00,
2013-02-15 04:02:00,34.0,34.0,29.99,SSE,157,0.0,3.0,100,0.00,,,0.01,,2013-02-15 09:02:00,
2013-02-15 04:12:00,34.0,34.0,29.99,SSE,157,0.0,3.0,100,0.00,,,0.01,,2013-02-15 09:12:00,
2013-02-15 04:21:00,34.0,34.0,29.98,SSE,155,0.0,3.0,99,0.00,,,0.01,,2013-02-15 09:21:00,
2013-02-15 04:32:00,34.0,33.0,29.99,SSE,155,0.0,3.0,97,0.00,,,0.01,,2013-02-15 09:32:00,
2013-02-15 04:42:00,34.0,33.0,29.99,SSE,155,0.0,3.0,97,0.00,,,0.01,,2013-02-15 09:42:00,
2013-02-15 04:52:00,34.0,33.0,29.99,SSE,155,0.0,3.0,97,0.00,,,0.01,,2013-02-15 09:52:00,
2013-02-15 05:01:00,34.0,33.0,30.00,SSE,155,0.0,3.0,97,0.00,,,0.01,,2013-02-15 10:01:00,
2013-02-15 05:11:00,34.0,33.0,30.00,SSE,155,0.0,3.0,97,0.00,,,0.01,,2013-02-15 10:11:00,
2013-02-15 05:21:00,34.0,33.0,30.00,SSE,155,0.0,3.0,97,0.00,,,0.01,,2013-02-15 10:21:00,
2013-02-15 05:31:00,33.0,32.0,29.99,SSE,155,0.0,3.0,97,0.00,,,0.01,,2013-02-15 10:31:00,
2013-02-15 05:42:00,33.0,32.0,29.99,SSE,155,0.0,3.0,97,0.00,,,0.01,,2013-02-15 10:42:00,
2013-02-15 05:52:00,34.0,34.0,29.99,SSE,155,0.0,3.0,99,0.00,,,0.01,,2013-02-15 10:52:00,
2013-02-15 06:01:00,34.0,34.0,29.99,SSE,155,0.0,3.0,99,0.00,,,0.01,,2013-02-15 11:01:00,
2013-02-15 06:11:00,34.0,34.0,29.99,SSE,155,0.0,3.0,99,0.00,,,0.01,,2013-02-15 11:11:00,
2013-02-15 06:23:00,34.0,34.0,29.99,SSE,155,0.0,3.0,98,0.00,,,0.01,,2013-02-15 11:23:00,
2013-02-15 06:32:00,33.0,32.0,29.99,SSE,155,0.0,3.0,97,0.00,,,0.01,,2013-02-15 11:32:00,
2013-02-15 06:42:00,33.0,32.0,29.99,SSE,155,0.0,3.0,97,0.00,,,0.01,,2013-02-15 11:42:00,
2013-02-15 06:52:00,32.0,31.0,29.98,SSE,155,0.0,3.0,97,0.00,,,0.01,,2013-02-15 11:52:00,
2013-02-15 07:02:00,31.0,30.0,29.98,SSE,155,0.0,3.0,97,0.00,,,0.01,,2013-02-15 12:02:00,
2013-02-15 07:11:00,31.0,30.0,29.98,SSE,155,0.0,3.0,97,0.00,,,0.01,,2013-02-15 12:11:00,
2013-02-15 07:21:00,31.0,30.0,29.99,SSE,155,0.0,3.0,97,0.00,,,0.01,,2013-02-15 12:21:00,
2013-02-15 07:32:00,31.0,31.0,29.99,SSE,155,0.0,3.0,98,0.00,,,0.01,,2013-02-15 12:32:00,
2013-02-15 07:42:00,31.0,31.0,29.99,SSE,155,0.0,3.0,98,0.00,,,0.01,,2013-02-15 12:42:00,
2013-02-15 07:52:00,31.0,31.0,30.00,SSE,157,0.0,3.0,98,0.00,,,0.01,,2013-02-15 12:52:00,
2013-02-15 08:02:00,31.0,31.0,30.00,SSE,155,0.0,3.0,99,0.00,,,0.01,,2013-02-15 13:02:00,
2013-02-15 08:11:00,32.0,32.0,30.01,SSE,155,0.0,3.0,100,0.00,,,0.01,,2013-02-15 13:11:00,
2013-02-15 08:22:00,32.0,32.0,30.01,SSE,155,0.0,3.0,100,0.00,,,0.01,,2013-02-15 13:22:00,
2013-02-15 08:32:00,33.0,33.0,30.01,SSE,155,0.0,3.0,100,0.00,,,0.01,,2013-02-15 13:32:00,
2013-02-15 08:42:00,33.0,33.0,30.01,SSE,155,0.0,3.0,100,0.00,,,0.01,,2013-02-15 13:42:00,
2013-02-15 08:52:00,36.0,36.0,30.01,SSE,155,0.0,3.0,100,0.00,,,0.01,,2013-02-15 13:52:00,
2013-02-15 09:01:00,38.0,35.0,30.01,SSE,155,0.0,6.0,90,0.00,,,0.01,,2013-02-15 14:01:00,
2013-02-15 09:12:00,38.0,35.0,30.01,SSE,155,0.0,6.0,90,0.00,,,0.01,,2013-02-15 14:12:00,
2013-02-15 09:21:00,40.0,35.0,30.01,SSE,158,0.0,12.0,81,0.00,,,0.01,,2013-02-15 14:21:00,
2013-02-15 09:32:00,41.0,34.0,30.01,SSE,157,0.0,12.0,77,0.00,,,0.01,,2013-02-15 14:32:00,
2013-02-15 09:42:00,41.0,34.0,30.01,SSE,157,0.0,12.0,77,0.00,,,0.01,,2013-02-15 14:42:00,
2013-02-15 09:52:00,42.0,34.0,30.00,SSE,158,0.0,12.0,73,0.00,,,0.01,,2013-02-15 14:52:00,
2013-02-15 10:01:00,43.0,34.0,30.00,SSE,158,0.0,12.0,71,0.00,,,0.01,,2013-02-15 15:01:00,
2013-02-15 10:11:00,43.0,34.0,30.00,SSE,158,0.0,12.0,71,0.00,,,0.01,,2013-02-15 15:11:00,
2013-02-15 10:21:00,44.0,34.0,30.01,SSE,158,0.0,12.0,69,0.00,,,0.01,,2013-02-15 15:21:00,
2013-02-15 10:32:00,44.0,34.0,30.01,SSE,160,0.0,12.0,68,0.00,,,0.01,,2013-02-15 15:32:00,
2013-02-15 10:42:00,45.0,35.0,30.00,SSE,161,1.0,19.0,67,0.00,,,0.01,,2013-02-15 15:42:00,
2013-02-15 10:52:00,45.0,35.0,30.00,SSE,161,1.0,19.0,67,0.00,,,0.01,,2013-02-15 15:52:00,
2013-02-15 11:02:00,45.0,34.0,30.01,SSE,161,0.0,19.0,64,0.00,,,0.01,,2013-02-15 16:02:00,
2013-02-15 11:11:00,45.0,34.0,30.01,SSE,161,0.0,19.0,64,0.00,,,0.01,,2013-02-15 16:11:00,
2013-02-15 11:22:00,46.0,34.0,30.00,SSE,162,0.0,19.0,62,0.00,,,0.01,,2013-02-15 16:22:00,
2013-02-15 11:32:00,47.0,34.0,30.00,SSE,162,1.0,24.0,61,0.00,,,0.01,,2013-02-15 16:32:00,
2013-02-15 11:42:00,47.0,34.0,30.00,SSE,162,1.0,24.0,61,0.00,,,0.01,,2013-02-15 16:42:00,
2013-02-15 11:52:00,47.0,34.0,29.99,South,179,1.0,143.0,61,0.00,,,0.01,,2013-02-15 16:52:00,
2013-02-15 12:01:00,47.0,34.0,29.99,South,171,0.0,157.0,61,0.00,,,0.01,,2013-02-15 17:01:00,
2013-02-15 12:11:00,48.0,35.0,29.98,South,169,3.0,157.0,61,0.00,,,0.01,,2013-02-15 17:11:00,
2013-02-15 12:21:00,48.0,35.0,29.98,South,169,3.0,157.0,61,0.00,,,0.01,,2013-02-15 17:21:00,
2013-02-15 12:32:00,47.0,35.0,29.98,South,178,1.0,157.0,62,0.00,,,0.01,,2013-02-15 17:32:00,
2013-02-15 12:42:00,47.0,35.0,29.98,South,178,1.0,157.0,62,0.00,,,0.01,,2013-02-15 17:42:00,
2013-02-15 12:52:00,48.0,35.0,29.96,South,169,1.0,157.0,61,0.00,,,0.01,,2013-02-15 17:52:00,
2013-02-15 13:01:00,48.0,35.0,29.96,SSE,165,0.0,157.0,60,0.00,,,0.01,,2013-02-15 18:01:00,
2013-02-15 13:11:00,48.0,35.0,29.96,SSE,165,0.0,157.0,60,0.00,,,0.01,,2013-02-15 18:11:00,
2013-02-15 13:21:00,49.0,36.0,29.95,SSE,165,1.0,157.0,60,0.00,,,0.01,,2013-02-15 18:21:00,
2013-02-15 13:32:00,49.0,35.0,29.94,SSE,157,3.0,157.0,58,0.00,,,0.01,,2013-02-15 18:32:00,
2013-02-15 13:42:00,49.0,35.0,29.94,SSE,157,3.0,157.0,58,0.00,,,0.01,,2013-02-15 18:42:00,
2013-02-15 13:53:00,50.0,34.0,29.93,SSE,158,0.0,157.0,54,0.00,,,0.01,,2013-02-15 18:53:00,
2013-02-15 14:01:00,51.0,33.0,29.93,South,178,0.0,157.0,50,0.00,,,0.01,,2013-02-15 19:01:00,
2013-02-15 14:11:00,51.0,33.0,29.93,South,178,0.0,157.0,50,0.00,,,0.01,,2013-02-15 19:11:00,
2013-02-15 14:22:00,53.0,33.0,29.93,SW,233,0.0,157.0,46,0.00,,,0.01,,2013-02-15 19:22:00,
2013-02-15 14:32:00,53.0,32.0,29.92,SW,229,0.0,157.0,44,0.00,,,0.01,,2013-02-15 19:32:00,
2013-02-15 14:42:00,53.0,32.0,29.92,SW,229,0.0,157.0,44,0.00,,,0.01,,2013-02-15 19:42:00,
2013-02-15 14:52:00,53.0,30.0,29.92,WSW,250,0.0,157.0,41,0.00,,,0.01,,2013-02-15 19:52:00,
2013-02-15 15:01:00,54.0,33.0,29.92,WSW,253,0.0,157.0,45,0.00,,,0.01,,2013-02-15 20:01:00,
2013-02-15 15:11:00,54.0,33.0,29.92,WSW,253,0.0,157.0,45,0.00,,,0.01,,2013-02-15 20:11:00,
2013-02-15 15:21:00,51.0,34.0,29.92,SW,234,6.0,157.0,53,0.00,,,0.01,,2013-02-15 20:21:00,
2013-02-15 15:32:00,51.0,34.0,29.91,SW,233,7.0,157.0,52,0.00,,,0.01,,2013-02-15 20:32:00,
2013-02-15 15:42:00,51.0,34.0,29.91,SW,233,7.0,157.0,52,0.00,,,0.01,,2013-02-15 20:42:00,
2013-02-15 15:52:00,51.0,34.0,29.91,SW,233,0.0,157.0,53,0.00,,,0.00,,2013-02-15 20:52:00,
2013-02-15 16:02:00,51.0,34.0,29.91,SW,233,1.0,157.0,52,0.00,,,0.00,,2013-02-15 21:02:00,
2013-02-15 16:11:00,51.0,34.0,29.91,SW,233,1.0,157.0,52,0.00,,,0.00,,2013-02-15 21:11:00,
2013-02-15 16:21:00,51.0,34.0,29.91,SW,230,0.0,157.0,52,0.00,,,0.00,,2013-02-15 21:21:00,
2013-02-15 16:32:00,51.0,35.0,29.91,SW,229,0.0,157.0,55,0.00,,,0.00,,2013-02-15 21:32:00,
2013-02-15 16:42:00,51.0,35.0,29.91,SW,229,0.0,157.0,55,0.00,,,0.00,,2013-02-15 21:42:00,
2013-02-15 16:52:00,49.0,36.0,29.92,SW,230,0.0,157.0,61,0.00,,,0.00,,2013-02-15 21:52:00,
2013-02-15 17:02:00,49.0,37.0,29.92,SW,230,0.0,157.0,63,0.00,,,0.00,,2013-02-15 22:02:00,
2013-02-15 17:11:00,47.0,37.0,29.93,SW,230,0.0,157.0,67,0.00,,,0.00,,2013-02-15 22:11:00,
2013-02-15 17:22:00,47.0,37.0,29.93,SW,230,0.0,157.0,67,0.00,,,0.00,,2013-02-15 22:22:00,
2013-02-15 17:32:00,46.0,36.0,29.93,SW,230,0.0,157.0,69,0.00,,,0.00,,2013-02-15 22:32:00,
2013-02-15 17:42:00,46.0,36.0,29.93,SW,230,0.0,157.0,69,0.00,,,0.00,,2013-02-15 22:42:00,
2013-02-15 17:52:00,46.0,37.0,29.93,SW,230,2.0,157.0,71,0.00,,,0.00,,2013-02-15 22:52:00,
2013-02-15 18:02:00,45.0,36.0,29.93,SW,229,5.0,157.0,71,0.00,,,0.00,,2013-02-15 23:02:00,
2013-02-15 18:11:00,45.0,36.0,29.93,SW,229,5.0,157.0,71,0.00,,,0.00,,2013-02-15 23:11:00,
2013-02-15 18:21:00,45.0,37.0,29.93,SW,230,0.0,157.0,72,0.00,,,0.00,,2013-02-15 23:21:00,
2013-02-15 18:32:00,44.0,36.0,29.93,SW,230,0.0,157.0,73,0.00,,,0.00,,2013-02-15 23:32:00,
2013-02-15 18:42:00,44.0,36.0,29.93,SW,230,0.0,157.0,73,0.00,,,0.00,,2013-02-15 23:42:00,
2013-02-15 18:52:00,44.0,36.0,29.93,SW,230,23.0,157.0,74,0.00,,,0.00,,2013-02-15 23:52:00,
2013-02-15 19:02:00,43.0,36.0,29.93,SW,230,0.0,157.0,76,0.00,,,0.00,,2013-02-16 00:02:00,
2013-02-15 19:11:00,43.0,36.0,29.93,SW,230,0.0,157.0,76,0.00,,,0.00,,2013-02-16 00:11:00,
2013-02-15 19:21:00,43.0,37.0,29.92,SW,230,0.0,157.0,78,0.00,,,0.00,,2013-02-16 00:21:00,
2013-02-15 19:32:00,42.0,36.0,29.92,SW,230,0.0,157.0,80,0.00,,,0.00,,2013-02-16 00:32:00,
2013-02-15 19:41:00,42.0,36.0,29.92,SW,230,0.0,157.0,80,0.00,,,0.00,,2013-02-16 00:41:00,
2013-02-15 19:52:00,42.0,37.0,29.93,SW,230,0.0,157.0,82,0.00,,,0.00,,2013-02-16 00:52:00,
2013-02-15 20:02:00,42.0,37.0,29.93,SW,230,0.0,157.0,81,0.00,,,0.00,,2013-02-16 01:02:00,
2013-02-15 20:11:00,42.0,37.0,29.93,SW,230,0.0,157.0,81,0.00,,,0.00,,2013-02-16 01:11:00,
2013-02-15 20:21:00,42.0,37.0,29.92,SW,230,0.0,157.0,81,0.00,,,0.00,,2013-02-16 01:21:00,
2013-02-15 20:32:00,42.0,36.0,29.92,SW,230,45.0,157.0,80,0.00,,,0.00,,2013-02-16 01:32:00,
2013-02-15 20:42:00,42.0,36.0,29.92,SW,230,45.0,157.0,80,0.00,,,0.00,,2013-02-16 01:42:00,
2013-02-15 20:52:00,41.0,36.0,29.93,SW,230,14.0,157.0,82,0.00,,,0.00,,2013-02-16 01:52:00,
2013-02-15 21:01:00,41.0,36.0,29.93,SW,230,0.0,157.0,82,0.00,,,0.00,,2013-02-16 02:01:00,
2013-02-15 21:11:00,41.0,37.0,29.93,SW,230,0.0,157.0,84,0.00,,,0.00,,2013-02-16 02:11:00,
2013-02-15 21:21:00,41.0,37.0,29.93,SW,230,0.0,157.0,84,0.00,,,0.00,,2013-02-16 02:21:00,
2013-02-15 21:32:00,40.0,36.0,29.93,SW,230,0.0,157.0,84,0.00,,,0.00,,2013-02-16 02:32:00,
2013-02-15 21:42:00,40.0,36.0,29.93,SW,230,0.0,157.0,84,0.00,,,0.00,,2013-02-16 02:42:00,
2013-02-15 21:52:00,40.0,36.0,29.93,SW,230,0.0,157.0,84,0.00,,,0.00,,2013-02-16 02:52:00,
2013-02-15 22:02:00,40.0,36.0,29.93,SW,230,0.0,157.0,84,0.00,,,0.00,,2013-02-16 03:02:00,
2013-02-15 22:11:00,40.0,36.0,29.92,SW,230,0.0,157.0,85,0.00,,,0.00,,2013-02-16 03:11:00,
2013-02-15 22:21:00,40.0,36.0,29.92,SW,230,0.0,157.0,85,0.00,,,0.00,,2013-02-16 03:21:00,
2013-02-15 22:32:00,40.0,36.0,29.93,SW,230,0.0,157.0,85,0.00,,,0.00,,2013-02-16 03:32:00,
2013-02-15 22:42:00,40.0,36.0,29.93,SW,230,0.0,157.0,85,0.00,,,0.00,,2013-02-16 03:42:00,
2013-02-15 22:52:00,39.0,35.0,29.93,SW,229,0.0,157.0,86,0.00,,,0.00,,2013-02-16 03:52:00,
2013-02-15 23:01:00,40.0,36.0,29.92,SW,230,0.0,157.0,87,0.00,,,0.00,,2013-02-16 04:01:00,
2013-02-15 23:11:00,40.0,35.0,29.93,SW,230,2.0,157.0,83,0.00,,,0.00,,2013-02-16 04:11:00,
2013-02-15 23:21:00,40.0,35.0,29.93,SW,230,2.0,157.0,83,0.00,,,0.00,,2013-02-16 04:21:00,
2013-02-15 23:32:00,41.0,34.0,29.93,NW,306,5.0,157.0,75,0.00,,,0.00,,2013-02-16 04:32:00,
2013-02-15 23:42:00,41.0,34.0,29.93,NW,306,5.0,157.0,75,0.00,,,0.00,,2013-02-16 04:42:00,
2013-02-15 23:52:00,43.0,29.0,29.94,NW,311,0.0,157.0,58,0.00,,,0.00,,2013-02-16 04:52:00,